sensor_id;sensor_type;location;lat;lon;timestamp;temperature;humidity
10384;DHT22;5238;43.508;4.980;2022-11-30T00:01:38;9.00;91.30
10384;DHT22;5238;43.508;4.980;2022-11-30T00:04:06;8.90;91.30
10384;DHT22;5238;43.508;4.980;2022-11-30T00:06:33;8.90;91.30
10384;DHT22;5238;43.508;4.980;2022-11-30T00:09:00;8.90;91.30
10384;DHT22;5238;43.508;4.980;2022-11-30T00:11:28;8.80;91.30
10384;DHT22;5238;43.508;4.980;2022-11-30T00:13:56;8.80;91.30
10384;DHT22;5238;43.508;4.980;2022-11-30T00:16:24;8.70;91.30
10384;DHT22;5238;43.508;4.980;2022-11-30T00:18:52;8.70;91.30
10384;DHT22;5238;43.508;4.980;2022-11-30T00:21:21;8.70;91.30
10384;DHT22;5238;43.508;4.980;2022-11-30T00:23:48;8.60;91.30
10384;DHT22;5238;43.508;4.980;2022-11-30T00:26:17;8.60;91.30
10384;DHT22;5238;43.508;4.980;2022-11-30T00:28:46;8.60;91.30
10384;DHT22;5238;43.508;4.980;2022-11-30T00:31:19;8.50;91.30
10384;DHT22;5238;43.508;4.980;2022-11-30T00:33:47;8.50;91.30
10384;DHT22;5238;43.508;4.980;2022-11-30T00:36:19;8.50;91.30
10384;DHT22;5238;43.508;4.980;2022-11-30T00:39:01;8.50;91.30
10384;DHT22;5238;43.508;4.980;2022-11-30T00:41:28;8.50;91.30
10384;DHT22;5238;43.508;4.980;2022-11-30T00:43:55;8.40;91.30
10384;DHT22;5238;43.508;4.980;2022-11-30T00:46:24;8.40;91.30
10384;DHT22;5238;43.508;4.980;2022-11-30T00:48:51;8.40;91.30
10384;DHT22;5238;43.508;4.980;2022-11-30T00:51:18;8.30;91.30
10384;DHT22;5238;43.508;4.980;2022-11-30T00:53:52;8.30;91.30
10384;DHT22;5238;43.508;4.980;2022-11-30T00:56:20;8.30;91.30
10384;DHT22;5238;43.508;4.980;2022-11-30T00:58:50;8.30;91.30
10384;DHT22;5238;43.508;4.980;2022-11-30T01:01:17;8.30;91.30
10384;DHT22;5238;43.508;4.980;2022-11-30T01:03:54;8.30;91.30
10384;DHT22;5238;43.508;4.980;2022-11-30T01:06:22;8.30;91.30
10384;DHT22;5238;43.508;4.980;2022-11-30T01:08:49;8.30;91.30
10384;DHT22;5238;43.508;4.980;2022-11-30T01:11:57;8.30;91.30
10384;DHT22;5238;43.508;4.980;2022-11-30T01:14:19;8.20;91.30
10384;DHT22;5238;43.508;4.980;2022-11-30T01:16:46;8.20;91.30
10384;DHT22;5238;43.508;4.980;2022-11-30T01:19:18;8.30;91.30
10384;DHT22;5238;43.508;4.980;2022-11-30T01:21:46;8.20;91.30
10384;DHT22;5238;43.508;4.980;2022-11-30T01:24:20;8.20;91.30
10384;DHT22;5238;43.508;4.980;2022-11-30T01:26:48;8.20;91.30
10384;DHT22;5238;43.508;4.980;2022-11-30T01:29:15;8.20;91.30
10384;DHT22;5238;43.508;4.980;2022-11-30T01:32:01;8.30;91.30
10384;DHT22;5238;43.508;4.980;2022-11-30T01:34:33;8.30;91.30
10384;DHT22;5238;43.508;4.980;2022-11-30T01:37:00;8.30;91.30
10384;DHT22;5238;43.508;4.980;2022-11-30T01:39:34;8.20;91.30
10384;DHT22;5238;43.508;4.980;2022-11-30T01:42:01;8.20;91.30
10384;DHT22;5238;43.508;4.980;2022-11-30T01:44:51;8.20;91.30
10384;DHT22;5238;43.508;4.980;2022-11-30T01:47:25;8.20;91.30
10384;DHT22;5238;43.508;4.980;2022-11-30T01:50:01;8.20;91.30
10384;DHT22;5238;43.508;4.980;2022-11-30T01:52:32;8.10;91.30
10384;DHT22;5238;43.508;4.980;2022-11-30T01:55:10;8.10;91.30
10384;DHT22;5238;43.508;4.980;2022-11-30T01:57:42;8.10;91.30
10384;DHT22;5238;43.508;4.980;2022-11-30T02:00:12;8.10;91.30
10384;DHT22;5238;43.508;4.980;2022-11-30T02:02:49;8.00;91.30
10384;DHT22;5238;43.508;4.980;2022-11-30T02:05:25;8.00;91.30
10384;DHT22;5238;43.508;4.980;2022-11-30T02:07:54;7.90;91.30
10384;DHT22;5238;43.508;4.980;2022-11-30T02:10:34;7.90;91.30
10384;DHT22;5238;43.508;4.980;2022-11-30T02:13:22;7.90;91.30
10384;DHT22;5238;43.508;4.980;2022-11-30T02:16:02;7.90;91.30
10384;DHT22;5238;43.508;4.980;2022-11-30T02:18:39;7.90;91.30
10384;DHT22;5238;43.508;4.980;2022-11-30T02:21:15;7.90;91.30
10384;DHT22;5238;43.508;4.980;2022-11-30T02:27:02;7.90;91.30
10384;DHT22;5238;43.508;4.980;2022-11-30T02:29:36;7.90;91.30
10384;DHT22;5238;43.508;4.980;2022-11-30T02:32:08;7.90;91.30
10384;DHT22;5238;43.508;4.980;2022-11-30T02:34:37;7.90;91.30
10384;DHT22;5238;43.508;4.980;2022-11-30T02:37:08;7.80;91.30
10384;DHT22;5238;43.508;4.980;2022-11-30T02:39:38;7.80;91.30
10384;DHT22;5238;43.508;4.980;2022-11-30T02:42:16;7.80;91.30
10384;DHT22;5238;43.508;4.980;2022-11-30T02:44:49;7.80;91.30
10384;DHT22;5238;43.508;4.980;2022-11-30T02:47:30;7.80;91.30
10384;DHT22;5238;43.508;4.980;2022-11-30T02:50:09;7.80;91.30
10384;DHT22;5238;43.508;4.980;2022-11-30T02:52:38;7.70;91.30
10384;DHT22;5238;43.508;4.980;2022-11-30T02:55:12;7.70;91.30
10384;DHT22;5238;43.508;4.980;2022-11-30T02:57:45;7.70;91.30
10384;DHT22;5238;43.508;4.980;2022-11-30T03:00:15;7.70;91.30
10384;DHT22;5238;43.508;4.980;2022-11-30T03:02:58;7.60;91.30
10384;DHT22;5238;43.508;4.980;2022-11-30T03:05:26;7.60;91.30
10384;DHT22;5238;43.508;4.980;2022-11-30T03:07:53;7.60;91.30
10384;DHT22;5238;43.508;4.980;2022-11-30T03:10:30;7.50;91.30
10384;DHT22;5238;43.508;4.980;2022-11-30T03:12:58;7.50;91.30
10384;DHT22;5238;43.508;4.980;2022-11-30T03:15:41;7.40;91.30
10384;DHT22;5238;43.508;4.980;2022-11-30T03:18:08;7.40;91.30
10384;DHT22;5238;43.508;4.980;2022-11-30T03:20:39;7.40;91.30
10384;DHT22;5238;43.508;4.980;2022-11-30T03:23:14;7.40;91.30
10384;DHT22;5238;43.508;4.980;2022-11-30T03:25:45;7.30;91.30
10384;DHT22;5238;43.508;4.980;2022-11-30T03:28:14;7.30;91.30
10384;DHT22;5238;43.508;4.980;2022-11-30T03:30:57;7.30;91.30
10384;DHT22;5238;43.508;4.980;2022-11-30T03:33:28;7.30;91.30
10384;DHT22;5238;43.508;4.980;2022-11-30T03:35:59;7.30;91.30
10384;DHT22;5238;43.508;4.980;2022-11-30T03:38:32;7.30;91.30
10384;DHT22;5238;43.508;4.980;2022-11-30T03:41:00;7.30;91.30
10384;DHT22;5238;43.508;4.980;2022-11-30T03:43:27;7.30;91.30
10384;DHT22;5238;43.508;4.980;2022-11-30T03:45:56;7.30;91.30
10384;DHT22;5238;43.508;4.980;2022-11-30T03:48:23;7.20;91.30
10384;DHT22;5238;43.508;4.980;2022-11-30T03:50:57;7.30;91.30
10384;DHT22;5238;43.508;4.980;2022-11-30T03:53:25;7.30;91.30
10384;DHT22;5238;43.508;4.980;2022-11-30T03:56:00;7.30;91.30
10384;DHT22;5238;43.508;4.980;2022-11-30T03:58:29;7.20;91.30
10384;DHT22;5238;43.508;4.980;2022-11-30T04:01:09;7.20;91.30
10384;DHT22;5238;43.508;4.980;2022-11-30T04:03:39;7.20;91.30
10384;DHT22;5238;43.508;4.980;2022-11-30T04:06:08;7.20;91.30
10384;DHT22;5238;43.508;4.980;2022-11-30T04:08:44;7.20;91.30
10384;DHT22;5238;43.508;4.980;2022-11-30T04:11:18;7.20;91.30
10384;DHT22;5238;43.508;4.980;2022-11-30T04:13:45;7.10;91.30
10384;DHT22;5238;43.508;4.980;2022-11-30T04:16:13;7.10;91.30
10384;DHT22;5238;43.508;4.980;2022-11-30T04:18:43;7.10;91.30
10384;DHT22;5238;43.508;4.980;2022-11-30T04:21:10;7.10;91.30
10384;DHT22;5238;43.508;4.980;2022-11-30T04:23:38;7.10;91.30
10384;DHT22;5238;43.508;4.980;2022-11-30T04:26:18;7.10;91.30
10384;DHT22;5238;43.508;4.980;2022-11-30T04:28:46;7.00;91.30
10384;DHT22;5238;43.508;4.980;2022-11-30T04:31:15;7.00;91.30
10384;DHT22;5238;43.508;4.980;2022-11-30T04:33:42;7.00;91.30
10384;DHT22;5238;43.508;4.980;2022-11-30T04:36:15;7.00;91.30
10384;DHT22;5238;43.508;4.980;2022-11-30T04:38:47;7.00;91.30
10384;DHT22;5238;43.508;4.980;2022-11-30T04:41:14;7.00;91.30
10384;DHT22;5238;43.508;4.980;2022-11-30T04:43:44;6.90;91.30
10384;DHT22;5238;43.508;4.980;2022-11-30T04:46:11;6.90;91.30
10384;DHT22;5238;43.508;4.980;2022-11-30T04:48:40;6.90;91.30
10384;DHT22;5238;43.508;4.980;2022-11-30T04:51:08;6.90;91.30
10384;DHT22;5238;43.508;4.980;2022-11-30T04:53:36;6.80;91.30
10384;DHT22;5238;43.508;4.980;2022-11-30T04:56:04;6.80;91.30
10384;DHT22;5238;43.508;4.980;2022-11-30T04:58:33;6.80;91.30
10384;DHT22;5238;43.508;4.980;2022-11-30T05:01:00;6.80;91.30
10384;DHT22;5238;43.508;4.980;2022-11-30T05:03:28;6.70;91.30
10384;DHT22;5238;43.508;4.980;2022-11-30T05:05:57;6.70;91.30
10384;DHT22;5238;43.508;4.980;2022-11-30T05:08:24;6.70;91.30
10384;DHT22;5238;43.508;4.980;2022-11-30T05:10:56;6.70;91.30
10384;DHT22;5238;43.508;4.980;2022-11-30T05:13:27;6.60;91.30
10384;DHT22;5238;43.508;4.980;2022-11-30T05:15:58;6.60;91.30
10384;DHT22;5238;43.508;4.980;2022-11-30T05:18:25;6.60;91.30
10384;DHT22;5238;43.508;4.980;2022-11-30T05:20:53;6.50;91.30
10384;DHT22;5238;43.508;4.980;2022-11-30T05:23:23;6.50;91.30
10384;DHT22;5238;43.508;4.980;2022-11-30T05:25:50;6.50;91.30
10384;DHT22;5238;43.508;4.980;2022-11-30T05:28:17;6.50;91.30
10384;DHT22;5238;43.508;4.980;2022-11-30T05:30:44;6.40;91.30
10384;DHT22;5238;43.508;4.980;2022-11-30T05:33:12;6.40;91.30
10384;DHT22;5238;43.508;4.980;2022-11-30T05:35:39;6.40;91.30
10384;DHT22;5238;43.508;4.980;2022-11-30T05:38:06;6.40;91.30
10384;DHT22;5238;43.508;4.980;2022-11-30T05:40:35;6.40;91.30
10384;DHT22;5238;43.508;4.980;2022-11-30T05:43:03;6.40;91.30
10384;DHT22;5238;43.508;4.980;2022-11-30T05:45:34;6.40;91.30
10384;DHT22;5238;43.508;4.980;2022-11-30T05:48:04;6.40;91.30
10384;DHT22;5238;43.508;4.980;2022-11-30T05:50:40;6.30;91.30
10384;DHT22;5238;43.508;4.980;2022-11-30T05:53:07;6.30;91.30
10384;DHT22;5238;43.508;4.980;2022-11-30T05:55:35;6.30;91.30
10384;DHT22;5238;43.508;4.980;2022-11-30T05:58:03;6.30;91.30
10384;DHT22;5238;43.508;4.980;2022-11-30T06:00:30;6.30;91.30
10384;DHT22;5238;43.508;4.980;2022-11-30T06:02:57;6.30;91.30
10384;DHT22;5238;43.508;4.980;2022-11-30T06:05:25;6.20;91.30
10384;DHT22;5238;43.508;4.980;2022-11-30T06:07:53;6.20;91.30
10384;DHT22;5238;43.508;4.980;2022-11-30T06:10:21;6.20;91.30
10384;DHT22;5238;43.508;4.980;2022-11-30T06:12:52;6.20;91.30
10384;DHT22;5238;43.508;4.980;2022-11-30T06:15:19;6.20;91.30
10384;DHT22;5238;43.508;4.980;2022-11-30T06:17:46;6.20;91.30
10384;DHT22;5238;43.508;4.980;2022-11-30T06:20:16;6.10;91.30
10384;DHT22;5238;43.508;4.980;2022-11-30T06:22:44;6.20;91.30
10384;DHT22;5238;43.508;4.980;2022-11-30T06:25:13;6.10;91.30
10384;DHT22;5238;43.508;4.980;2022-11-30T06:30:56;6.10;91.30
10384;DHT22;5238;43.508;4.980;2022-11-30T06:33:47;6.00;91.30
10384;DHT22;5238;43.508;4.980;2022-11-30T06:36:26;6.00;91.30
10384;DHT22;5238;43.508;4.980;2022-11-30T06:39:32;5.90;91.30
10384;DHT22;5238;43.508;4.980;2022-11-30T06:42:03;5.90;91.30
10384;DHT22;5238;43.508;4.980;2022-11-30T06:44:38;5.80;91.30
10384;DHT22;5238;43.508;4.980;2022-11-30T06:47:09;5.80;91.30
10384;DHT22;5238;43.508;4.980;2022-11-30T06:49:36;5.80;91.30
10384;DHT22;5238;43.508;4.980;2022-11-30T06:52:04;5.80;91.30
10384;DHT22;5238;43.508;4.980;2022-11-30T06:54:32;5.80;91.30
10384;DHT22;5238;43.508;4.980;2022-11-30T06:56:59;5.70;91.30
10384;DHT22;5238;43.508;4.980;2022-11-30T06:59:28;5.80;91.30
10384;DHT22;5238;43.508;4.980;2022-11-30T07:01:55;5.80;91.30
10384;DHT22;5238;43.508;4.980;2022-11-30T07:04:32;5.80;91.30
10384;DHT22;5238;43.508;4.980;2022-11-30T07:07:08;5.80;91.30
10384;DHT22;5238;43.508;4.980;2022-11-30T07:09:35;5.80;91.30
10384;DHT22;5238;43.508;4.980;2022-11-30T07:12:07;5.80;91.30
10384;DHT22;5238;43.508;4.980;2022-11-30T07:14:34;5.90;91.30
10384;DHT22;5238;43.508;4.980;2022-11-30T07:17:07;5.80;91.30
10384;DHT22;5238;43.508;4.980;2022-11-30T07:19:39;5.80;91.30
10384;DHT22;5238;43.508;4.980;2022-11-30T07:22:11;5.90;91.30
10384;DHT22;5238;43.508;4.980;2022-11-30T07:24:39;5.90;91.30
10384;DHT22;5238;43.508;4.980;2022-11-30T07:27:27;6.00;91.30
10384;DHT22;5238;43.508;4.980;2022-11-30T07:29:55;6.20;91.30
10384;DHT22;5238;43.508;4.980;2022-11-30T07:32:33;6.30;91.30
10384;DHT22;5238;43.508;4.980;2022-11-30T07:35:14;6.50;91.30
10384;DHT22;5238;43.508;4.980;2022-11-30T07:37:43;6.70;91.30
10384;DHT22;5238;43.508;4.980;2022-11-30T07:40:11;6.90;91.30
10384;DHT22;5238;43.508;4.980;2022-11-30T07:42:39;7.00;91.30
10384;DHT22;5238;43.508;4.980;2022-11-30T07:45:10;7.20;91.30
10384;DHT22;5238;43.508;4.980;2022-11-30T07:47:45;7.30;91.30
10384;DHT22;5238;43.508;4.980;2022-11-30T07:50:16;7.50;91.30
10384;DHT22;5238;43.508;4.980;2022-11-30T07:53:00;7.70;91.30
10384;DHT22;5238;43.508;4.980;2022-11-30T07:55:31;7.80;91.30
10384;DHT22;5238;43.508;4.980;2022-11-30T07:58:02;7.90;91.30
10384;DHT22;5238;43.508;4.980;2022-11-30T08:00:34;8.00;91.30
10384;DHT22;5238;43.508;4.980;2022-11-30T08:05:50;8.30;91.30
10384;DHT22;5238;43.508;4.980;2022-11-30T08:08:18;8.40;91.30
10384;DHT22;5238;43.508;4.980;2022-11-30T08:10:50;8.50;91.30
10384;DHT22;5238;43.508;4.980;2022-11-30T08:13:32;8.60;91.30
10384;DHT22;5238;43.508;4.980;2022-11-30T08:16:01;8.70;91.30
10384;DHT22;5238;43.508;4.980;2022-11-30T08:18:41;8.90;91.30
10384;DHT22;5238;43.508;4.980;2022-11-30T08:21:19;9.00;91.30
10384;DHT22;5238;43.508;4.980;2022-11-30T08:24:16;9.20;91.30
10384;DHT22;5238;43.508;4.980;2022-11-30T08:26:52;9.40;91.30
10384;DHT22;5238;43.508;4.980;2022-11-30T08:29:28;9.60;91.30
10384;DHT22;5238;43.508;4.980;2022-11-30T08:32:05;9.90;91.30
10384;DHT22;5238;43.508;4.980;2022-11-30T08:34:33;10.10;91.30
10384;DHT22;5238;43.508;4.980;2022-11-30T08:40:16;10.60;91.30
10384;DHT22;5238;43.508;4.980;2022-11-30T08:42:55;10.90;91.30
10384;DHT22;5238;43.508;4.980;2022-11-30T08:45:39;11.10;91.30
10384;DHT22;5238;43.508;4.980;2022-11-30T08:48:13;11.40;91.30
10384;DHT22;5238;43.508;4.980;2022-11-30T08:54:53;12.00;91.30
10384;DHT22;5238;43.508;4.980;2022-11-30T09:24:36;13.70;91.30
10384;DHT22;5238;43.508;4.980;2022-11-30T09:27:19;13.90;91.30
10384;DHT22;5238;43.508;4.980;2022-11-30T09:29:51;14.00;91.30
10384;DHT22;5238;43.508;4.980;2022-11-30T09:34:16;14.00;91.30
10384;DHT22;5238;43.508;4.980;2022-11-30T09:47:09;14.80;91.30
10384;DHT22;5238;43.508;4.980;2022-11-30T10:52:19;15.60;91.30
10384;DHT22;5238;43.508;4.980;2022-11-30T11:02:36;15.40;91.30
10384;DHT22;5238;43.508;4.980;2022-11-30T11:49:25;14.10;91.30
10384;DHT22;5238;43.508;4.980;2022-11-30T15:40:34;13.50;91.30
10384;DHT22;5238;43.508;4.980;2022-11-30T15:50:41;13.30;91.30
10384;DHT22;5238;43.508;4.980;2022-11-30T15:53:47;13.20;91.30
10384;DHT22;5238;43.508;4.980;2022-11-30T16:37:58;12.10;91.30
10384;DHT22;5238;43.508;4.980;2022-11-30T16:41:24;12.00;91.30
10384;DHT22;5238;43.508;4.980;2022-11-30T16:44:19;12.00;91.30
10384;DHT22;5238;43.508;4.980;2022-11-30T17:27:58;11.10;91.30
10384;DHT22;5238;43.508;4.980;2022-11-30T17:31:15;11.10;91.30
10384;DHT22;5238;43.508;4.980;2022-11-30T17:41:17;10.90;91.30
10384;DHT22;5238;43.508;4.980;2022-11-30T19:16:22;10.00;91.30
10384;DHT22;5238;43.508;4.980;2022-11-30T19:19:35;9.90;91.30
10384;DHT22;5238;43.508;4.980;2022-11-30T19:22:10;9.90;91.30
10384;DHT22;5238;43.508;4.980;2022-11-30T20:02:17;9.70;91.30
10384;DHT22;5238;43.508;4.980;2022-11-30T20:05:06;9.70;91.30
10384;DHT22;5238;43.508;4.980;2022-11-30T20:21:53;9.50;91.30
10384;DHT22;5238;43.508;4.980;2022-11-30T20:25:02;9.60;91.30
10384;DHT22;5238;43.508;4.980;2022-11-30T21:10:55;9.20;91.30
10384;DHT22;5238;43.508;4.980;2022-11-30T21:21:00;9.20;91.30
10384;DHT22;5238;43.508;4.980;2022-11-30T21:24:30;9.20;91.30
10384;DHT22;5238;43.508;4.980;2022-11-30T21:28:00;9.20;91.30
10384;DHT22;5238;43.508;4.980;2022-11-30T21:30:29;9.20;91.30
10384;DHT22;5238;43.508;4.980;2022-11-30T21:40:36;9.10;91.30
10384;DHT22;5238;43.508;4.980;2022-11-30T21:43:24;9.00;91.30
10384;DHT22;5238;43.508;4.980;2022-11-30T21:46:05;9.00;91.30
10384;DHT22;5238;43.508;4.980;2022-11-30T21:49:07;9.00;91.30
10384;DHT22;5238;43.508;4.980;2022-11-30T21:51:42;8.90;91.30
10384;DHT22;5238;43.508;4.980;2022-11-30T21:54:22;8.90;91.30
10384;DHT22;5238;43.508;4.980;2022-11-30T22:00:23;8.80;91.30
10384;DHT22;5238;43.508;4.980;2022-11-30T22:03:14;8.80;91.30
10384;DHT22;5238;43.508;4.980;2022-11-30T22:05:59;8.70;91.30
10384;DHT22;5238;43.508;4.980;2022-11-30T22:08:54;8.80;91.30
10384;DHT22;5238;43.508;4.980;2022-11-30T22:12:50;8.80;91.30
